Time;durP1;ratioP1;P1;durP2;ratioP2;P2;SDS_P1;SDS_P2;PMS_P1;PMS_P2;Temp;Humidity;BMP_temperature;BMP_pressure;BME280_temperature;BME280_humidity;BME280_pressure;Samples;Min_cycle;Max_cycle;Signal;HPM_P1;HPM_P2
2022/11/06 00:02:19;;;;;;;37.10;13.70;;;;;;;7.44;100.00;100117.97;4250746;28;20234;-70
2022/11/06 00:04:46;;;;;;;28.97;12.57;;;;;;;7.43;100.00;100131.34;4261178;28;20285;-68
2022/11/06 00:07:13;;;;;;;41.07;13.37;;;;;;;7.43;100.00;100137.47;4252119;28;20284;-70
2022/11/06 00:09:39;;;;;;;40.17;14.47;;;;;;;7.34;100.00;100144.41;4247107;28;20403;-67
2022/11/06 00:12:06;;;;;;;38.33;14.43;;;;;;;7.24;100.00;100138.22;4254717;28;20242;-69
2022/11/06 00:14:33;;;;;;;35.63;13.53;;;;;;;7.26;100.00;100140.72;4252642;28;21910;-71
2022/11/06 00:17:00;;;;;;;38.27;16.30;;;;;;;7.15;100.00;100144.28;4243752;28;21990;-70
2022/11/06 00:19:26;;;;;;;45.27;15.73;;;;;;;7.08;100.00;100137.84;4255210;28;20238;-71
2022/11/06 00:21:53;;;;;;;36.80;14.07;;;;;;;6.99;100.00;100139.44;4249687;28;20245;-70
2022/11/06 00:24:19;;;;;;;40.27;14.43;;;;;;;6.97;100.00;100136.94;4246918;28;20263;-69
2022/11/06 00:26:46;;;;;;;33.67;14.13;;;;;;;7.07;100.00;100134.38;4256297;28;21926;-67
2022/11/06 00:29:19;;;;;;;41.93;14.80;;;;;;;7.08;100.00;100137.84;4256566;28;25631;-68
2022/11/06 00:31:48;;;;;;;40.20;16.87;;;;;;;7.08;100.00;100138.69;4250487;28;20242;-71
2022/11/06 00:34:14;;;;;;;53.90;18.37;;;;;;;6.90;100.00;100150.81;4249002;28;20227;-69
2022/11/06 00:36:41;;;;;;;47.40;14.67;;;;;;;6.89;100.00;100155.25;4258640;28;20404;-70
2022/11/06 00:39:08;;;;;;;44.47;16.00;;;;;;;6.93;100.00;100155.81;4240082;28;26824;-70
2022/11/06 00:41:35;;;;;;;41.67;16.37;;;;;;;6.82;100.00;100167.31;4238624;28;20283;-70
2022/11/06 00:44:02;;;;;;;44.00;16.47;;;;;;;6.69;100.00;100159.53;4246693;28;20254;-71
2022/11/06 00:46:28;;;;;;;44.63;17.57;;;;;;;6.68;100.00;100170.28;4245033;28;22232;-69
2022/11/06 00:48:55;;;;;;;47.23;16.77;;;;;;;6.68;100.00;100173.75;4249907;28;20267;-71
2022/11/06 00:51:27;;;;;;;48.33;17.30;;;;;;;6.65;100.00;100179.28;4252539;28;20246;-70
2022/11/06 00:54:02;;;;;;;48.47;18.23;;;;;;;6.69;100.00;100179.88;4260465;28;20227;-70
2022/11/06 00:56:29;;;;;;;57.27;20.60;;;;;;;6.61;100.00;100167.28;4249688;28;21764;-71
2022/11/06 00:58:58;;;;;;;55.60;19.63;;;;;;;6.51;100.00;100176.94;4257150;28;20386;-70
2022/11/06 01:01:44;;;;;;;50.57;18.10;;;;;;;6.56;100.00;100177.41;4246735;28;20411;-68
2022/11/06 01:04:16;;;;;;;48.67;17.17;;;;;;;6.68;100.00;100178.22;4254822;28;20230;-69
2022/11/06 01:06:45;;;;;;;46.53;17.00;;;;;;;6.59;100.00;100179.78;4258816;28;20355;-69
2022/11/06 01:09:15;;;;;;;50.40;19.00;;;;;;;6.65;100.00;100184.59;4255502;28;20653;-72
2022/11/06 01:11:44;;;;;;;46.53;17.93;;;;;;;6.54;100.00;100182.81;4237183;28;20600;-71
2022/11/06 01:14:30;;;;;;;57.07;18.83;;;;;;;6.47;100.00;100180.81;4259677;28;20239;-69
2022/11/06 01:16:57;;;;;;;53.57;19.43;;;;;;;6.39;100.00;100194.66;4229768;28;20337;-69
2022/11/06 01:19:23;;;;;;;58.43;20.57;;;;;;;6.39;100.00;100189.38;4249278;28;20337;-70
2022/11/06 01:21:51;;;;;;;58.83;21.83;;;;;;;6.26;100.00;100188.66;4250419;28;20226;-71
2022/11/06 01:24:21;;;;;;;54.77;18.23;;;;;;;6.21;100.00;100191.66;4247817;28;20660;-68
2022/11/06 01:26:48;;;;;;;51.93;18.87;;;;;;;6.17;100.00;100184.13;4238544;28;20330;-71
2022/11/06 01:29:35;;;;;;;44.47;17.07;;;;;;;6.18;100.00;100184.00;4254405;28;20237;-69
2022/11/06 01:32:02;;;;;;;41.63;18.93;;;;;;;6.23;100.00;100192.41;4241009;28;20290;-72
2022/11/06 01:34:28;;;;;;;50.80;18.13;;;;;;;6.16;100.00;100192.97;4249525;28;20223;-69
2022/11/06 01:36:55;;;;;;;42.47;16.27;;;;;;;6.26;100.00;100193.94;4258199;28;20358;-69
2022/11/06 01:39:21;;;;;;;40.97;17.27;;;;;;;6.22;100.00;100200.44;4253157;28;20226;-69
2022/11/06 01:41:50;;;;;;;67.57;19.07;;;;;;;6.18;100.00;100197.22;4243636;28;21452;-68
2022/11/06 01:44:34;;;;;;;68.07;19.37;;;;;;;6.10;100.00;100194.31;4239243;28;20417;-69
2022/11/06 01:47:03;;;;;;;54.07;18.07;;;;;;;6.11;100.00;100193.34;4247473;28;22855;-69
2022/11/06 01:49:35;;;;;;;52.30;17.80;;;;;;;5.97;100.00;100188.31;4243415;28;20416;-68
2022/11/06 01:52:09;;;;;;;36.73;16.40;;;;;;;6.20;100.00;100195.25;4229641;28;20253;-70
2022/11/06 01:54:37;;;;;;;58.17;20.80;;;;;;;6.21;100.00;100191.66;4237961;28;23420;-68
2022/11/06 01:57:04;;;;;;;46.63;17.90;;;;;;;6.23;100.00;100195.03;4244578;28;20235;-67
2022/11/06 01:59:33;;;;;;;48.83;19.13;;;;;;;6.16;100.00;100193.84;4246794;28;20233;-69
2022/11/06 02:01:59;;;;;;;50.00;18.27;;;;;;;6.17;100.00;100200.78;4232333;28;21169;-70
2022/11/06 02:04:39;;;;;;;46.73;17.73;;;;;;;6.30;100.00;100201.50;4243972;28;20242;-69
2022/11/06 02:07:06;;;;;;;39.93;16.50;;;;;;;6.35;100.00;100206.41;4224063;28;20595;-71
2022/11/06 02:09:33;;;;;;;35.60;16.63;;;;;;;6.35;100.00;100201.13;4240884;28;23643;-68
2022/11/06 02:12:04;;;;;;;49.47;18.03;;;;;;;6.38;100.00;100194.75;4218271;28;20239;-68
2022/11/06 02:14:54;;;;;;;40.70;17.27;;;;;;;6.42;100.00;100198.84;4257157;28;20597;-68
2022/11/06 02:17:40;;;;;;;51.87;18.20;;;;;;;6.22;100.00;100203.91;4237823;28;22264;-69
2022/11/06 02:20:25;;;;;;;34.87;16.07;;;;;;;6.31;100.00;100203.16;4246729;28;20790;-71
2022/11/06 02:23:09;;;;;;;51.20;17.37;;;;;;;6.11;100.00;100204.78;4249903;28;20368;-69
2022/11/06 02:26:03;;;;;;;66.17;19.10;;;;;;;5.94;100.00;100205.25;4246311;28;20337;-67
2022/11/06 02:28:33;;;;;;;49.60;17.13;;;;;;;5.98;100.00;100195.31;4254485;28;20840;-67
2022/11/06 02:31:02;;;;;;;78.50;19.03;;;;;;;5.88;100.00;100211.84;4250529;28;20317;-69
2022/11/06 02:33:42;;;;;;;101.13;20.80;;;;;;;5.67;100.00;100213.53;4244371;28;20310;-69
2022/11/06 02:36:14;;;;;;;106.23;19.83;;;;;;;5.65;100.00;100215.44;4239884;28;21499;-68
2022/11/06 02:38:45;;;;;;;128.57;20.97;;;;;;;5.63;100.00;100217.34;4250542;28;20234;-66
2022/11/06 02:41:17;;;;;;;184.53;23.27;;;;;;;5.44;100.00;100224.03;4233705;28;20242;-68
2022/11/06 02:43:46;;;;;;;138.60;21.83;;;;;;;5.54;100.00;100229.44;4252446;28;20307;-69
2022/11/06 02:46:19;;;;;;;208.70;24.23;;;;;;;5.55;100.00;100230.28;4233291;28;25044;-68
2022/11/06 02:49:05;;;;;;;101.83;21.33;;;;;;;5.61;100.00;100229.81;4228321;28;20242;-68
2022/11/06 02:51:35;;;;;;;143.00;23.87;;;;;;;5.56;100.00;100231.97;4240312;28;20242;-68
2022/11/06 02:54:02;;;;;;;256.37;26.87;;;;;;;5.39;100.00;100228.84;4242666;28;22275;-68
2022/11/06 02:56:33;;;;;;;186.80;24.27;;;;;;;5.47;100.00;100234.34;4207619;28;20412;-68
2022/11/06 02:59:03;;;;;;;310.43;28.27;;;;;;;5.34;100.00;100228.34;4248220;28;20560;-66
2022/11/06 03:01:33;;;;;;;302.87;28.03;;;;;;;5.31;100.00;100233.84;4255795;28;21046;-66
2022/11/06 03:04:03;;;;;;;122.20;22.93;;;;;;;5.43;100.00;100239.97;4253522;28;20300;-70
2022/11/06 03:06:35;;;;;;;177.20;25.10;;;;;;;5.34;100.00;100238.03;4251448;28;21343;-69
2022/11/06 03:09:11;;;;;;;118.80;23.20;;;;;;;5.36;100.00;100242.28;4244612;28;26204;-67
2022/11/06 03:11:38;;;;;;;90.20;23.47;;;;;;;5.39;100.00;100234.13;4236472;28;20239;-68
2022/11/06 03:14:13;;;;;;;183.30;25.80;;;;;;;5.42;100.00;100244.44;4247871;28;20234;-68
2022/11/06 03:17:16;;;;;;;55.27;19.10;;;;;;;5.60;100.00;100242.19;4240440;28;20241;-67
2022/11/06 03:19:54;;;;;;;98.10;21.97;;;;;;;5.63;100.00;100241.09;4254691;28;20238;-68
2022/11/06 03:22:29;;;;;;;110.77;20.97;;;;;;;5.63;100.00;100239.31;4249387;28;20273;-68
2022/11/06 03:25:04;;;;;;;250.93;26.50;;;;;;;5.39;100.00;100234.13;4247458;28;22165;-66
2022/11/06 03:27:33;;;;;;;135.67;22.20;;;;;;;5.43;100.00;100238.22;4255251;28;20427;-67
2022/11/06 03:30:03;;;;;;;226.53;25.00;;;;;;;5.44;100.00;100234.59;4243258;28;23319;-67
2022/11/06 03:32:46;;;;;;;254.60;26.27;;;;;;;5.33;100.00;100231.94;4254136;28;21767;-69
2022/11/06 03:35:25;;;;;;;146.87;22.70;;;;;;;5.37;100.00;100233.38;4231756;28;20549;-67
2022/11/06 03:37:56;;;;;;;39.60;17.87;;;;;;;5.44;100.00;100239.88;4243604;28;20949;-70
2022/11/06 03:40:26;;;;;;;53.17;18.30;;;;;;;5.50;100.00;100244.69;4261262;28;23109;-69
2022/11/06 03:42:56;;;;;;;206.17;23.53;;;;;;;5.35;100.00;100245.84;4244171;28;20314;-70
2022/11/06 03:45:23;;;;;;;181.83;22.70;;;;;;;5.17;100.00;100253.34;4248435;28;20232;-67
2022/11/06 03:48:00;;;;;;;191.10;22.23;;;;;;;5.06;100.00;100254.16;4237816;28;22356;-68
2022/11/06 03:50:36;;;;;;;96.43;19.27;;;;;;;5.05;100.00;100257.72;4248723;28;20235;-66
2022/11/06 03:53:08;;;;;;;220.37;22.10;;;;;;;4.96;100.00;100263.69;4246422;28;20418;-67
2022/11/06 03:55:44;;;;;;;137.53;19.53;;;;;;;4.90;100.00;100261.53;4243718;28;20226;-69
2022/11/06 03:58:14;;;;;;;182.50;20.80;;;;;;;4.73;100.00;100261.91;4251840;28;20225;-68
2022/11/06 04:00:41;;;;;;;196.60;22.20;;;;;;;4.78;100.00;100270.34;4219572;28;21959;-67
2022/11/06 04:03:24;;;;;;;172.67;21.63;;;;;;;4.84;100.00;100261.97;4224901;28;20336;-70
2022/11/06 04:05:54;;;;;;;198.70;22.10;;;;;;;4.88;100.00;100257.31;4241269;28;21332;-68
2022/11/06 04:14:00;;;;;;;157.57;19.27;;;;;;;4.85;100.00;100264.50;4247750;28;20363;-67
2022/11/06 04:16:36;;;;;;;98.30;17.50;;;;;;;4.90;100.00;100263.31;4246018;28;20223;-67
2022/11/06 04:19:09;;;;;;;236.03;22.70;;;;;;;4.69;100.00;100269.19;4240549;28;22366;-69
2022/11/06 04:21:56;;;;;;;194.40;21.37;;;;;;;4.65;100.00;100273.84;4240678;28;21172;-71
2022/11/06 04:27:46;;;;;;;253.70;20.87;;;;;;;4.49;100.00;100273.25;4265026;28;20245;-68
2022/11/06 04:30:14;;;;;;;298.50;25.23;;;;;;;4.33;100.00;100273.53;4250946;28;20303;-67
2022/11/06 04:33:03;;;;;;;278.13;23.13;;;;;;;4.39;100.00;100267.81;4244637;28;20338;-67
2022/11/06 04:35:37;;;;;;;292.00;24.47;;;;;;;4.31;100.00;100264.03;4253266;28;20815;-70
2022/11/06 04:38:26;;;;;;;195.40;20.83;;;;;;;4.37;100.00;100260.97;4222035;28;20244;-70
2022/11/06 04:41:07;;;;;;;107.77;16.87;;;;;;;4.46;100.00;100267.38;4252893;28;20264;-67
2022/11/06 04:43:39;;;;;;;107.63;18.13;;;;;;;4.45;100.00;100256.00;4256319;28;20314;-68
2022/11/06 04:46:07;;;;;;;72.07;19.33;;;;;;;4.52;100.00;100254.63;4250135;28;20296;-67
2022/11/06 04:48:34;;;;;;;58.07;15.60;;;;;;;4.60;100.00;100252.25;4246507;28;20234;-67
2022/11/06 04:51:02;;;;;;;133.50;20.00;;;;;;;4.41;100.00;100247.47;4243668;28;20755;-70
2022/11/06 04:53:30;;;;;;;70.10;15.83;;;;;;;4.43;100.00;100250.00;4241778;28;20237;-67
2022/11/06 04:56:01;;;;;;;50.03;13.60;;;;;;;4.25;100.00;100243.41;4258500;28;20422;-68
2022/11/06 04:58:28;;;;;;;41.80;13.13;;;;;;;4.14;100.00;100247.63;4229664;28;20230;-66
2022/11/06 05:00:54;;;;;;;115.47;16.43;;;;;;;4.16;100.00;100251.00;4252824;28;21614;-67
2022/11/06 05:03:21;;;;;;;43.13;14.50;;;;;;;4.12;100.00;100254.81;4261636;28;20324;-70
2022/11/06 05:05:47;;;;;;;119.30;16.00;;;;;;;3.96;100.00;100256.84;4269937;28;20595;-71
2022/11/06 05:08:16;;;;;;;99.23;17.53;;;;;;;3.89;100.00;100253.78;4243694;28;20234;-70
2022/11/06 05:10:42;;;;;;;110.30;16.77;;;;;;;3.85;100.00;100262.84;4249895;28;20416;-67
2022/11/06 05:13:09;;;;;;;122.37;17.97;;;;;;;3.72;100.00;100260.22;4234933;28;21541;-70
2022/11/06 05:15:35;;;;;;;110.20;15.63;;;;;;;3.69;100.00;100264.84;4254189;28;20231;-67
2022/11/06 05:18:02;;;;;;;98.60;17.10;;;;;;;3.61;100.00;100264.56;4259010;28;21074;-67
2022/11/06 05:20:29;;;;;;;71.23;15.33;;;;;;;3.58;100.00;100268.19;4237863;28;20721;-70
2022/11/06 05:23:02;;;;;;;131.97;18.90;;;;;;;3.48;100.00;100259.25;4247739;28;20440;-68
2022/11/06 05:25:31;;;;;;;120.73;19.50;;;;;;;3.45;100.00;100267.38;4242126;28;20329;-71
2022/11/06 05:27:58;;;;;;;58.90;15.17;;;;;;;3.54;100.00;100274.63;4252390;28;21169;-68
2022/11/06 05:30:24;;;;;;;125.80;19.17;;;;;;;3.47;100.00;100274.22;4245283;28;20231;-66
2022/11/06 05:32:51;;;;;;;153.90;19.63;;;;;;;3.34;100.00;100278.59;4231001;28;20240;-68
2022/11/06 05:35:18;;;;;;;40.57;14.97;;;;;;;3.53;100.00;100279.03;4245953;28;20283;-69
2022/11/06 05:37:45;;;;;;;95.13;17.87;;;;;;;3.57;100.00;100279.69;4246075;28;22035;-65
2022/11/06 05:40:12;;;;;;;149.93;19.10;;;;;;;3.44;100.00;100287.56;4251055;28;25531;-66
2022/11/06 05:42:40;;;;;;;110.70;19.07;;;;;;;3.36;100.00;100289.88;4256124;28;21804;-66
2022/11/06 05:45:07;;;;;;;131.80;19.67;;;;;;;3.26;100.00;100281.75;4252248;28;22930;-70
2022/11/06 05:47:33;;;;;;;129.07;18.27;;;;;;;3.38;100.00;100282.72;4253248;28;22231;-68
2022/11/06 05:50:00;;;;;;;171.83;22.77;;;;;;;3.35;100.00;100291.66;4243833;28;20493;-67
2022/11/06 05:52:26;;;;;;;215.77;22.57;;;;;;;3.34;100.00;100292.59;4230760;28;20403;-70
2022/11/06 05:54:53;;;;;;;185.93;21.13;;;;;;;3.35;100.00;100294.28;4264371;28;21101;-67
2022/11/06 05:57:20;;;;;;;231.90;25.63;;;;;;;3.42;100.00;100299.13;4253916;28;20246;-65
2022/11/06 05:59:46;;;;;;;185.90;21.80;;;;;;;3.34;100.00;100300.47;4240807;28;21167;-68
2022/11/06 06:02:13;;;;;;;59.50;16.40;;;;;;;3.54;100.00;100303.59;4261326;28;20230;-66
2022/11/06 06:04:40;;;;;;;230.03;24.13;;;;;;;3.48;100.00;100310.06;4249435;28;20230;-66
2022/11/06 06:07:06;;;;;;;295.83;28.13;;;;;;;3.42;100.00;100313.13;4249031;28;21998;-68
2022/11/06 06:09:33;;;;;;;132.20;18.93;;;;;;;3.49;100.00;100319.66;4261896;28;20443;-65
2022/11/06 06:11:59;;;;;;;73.17;17.07;;;;;;;3.63;100.00;100310.00;4260436;28;20701;-65
2022/11/06 06:14:26;;;;;;;263.10;25.93;;;;;;;3.59;100.00;100314.63;4273731;28;20241;-67
2022/11/06 06:16:53;;;;;;;144.53;23.50;;;;;;;3.66;100.00;100305.38;4261669;28;20252;-68
2022/11/06 06:19:20;;;;;;;114.53;20.37;;;;;;;3.77;100.00;100313.38;4243785;28;20229;-73
2022/11/06 06:21:48;;;;;;;46.60;19.10;;;;;;;3.97;100.00;100319.06;4264296;28;20245;-69
2022/11/06 06:24:14;;;;;;;153.40;23.67;;;;;;;4.01;100.00;100326.66;4234711;28;20242;-69
2022/11/06 06:26:41;;;;;;;76.20;22.93;;;;;;;4.15;100.00;100327.50;4260447;28;20310;-70
2022/11/06 06:29:07;;;;;;;181.83;23.60;;;;;;;4.13;100.00;100329.41;4258708;28;20239;-69
2022/11/06 06:31:34;;;;;;;82.37;19.90;;;;;;;4.13;100.00;100332.88;4242523;28;20237;-72
2022/11/06 06:34:01;;;;;;;108.53;19.90;;;;;;;4.20;100.00;100333.28;4247622;28;21233;-70
2022/11/06 06:36:28;;;;;;;43.23;18.13;;;;;;;4.15;100.00;100344.13;4252432;28;22281;-68
2022/11/06 06:38:54;;;;;;;169.13;25.10;;;;;;;4.15;100.00;100344.13;4252047;28;21127;-69
2022/11/06 06:41:21;;;;;;;98.97;20.30;;;;;;;4.29;100.00;100345.81;4243045;28;22584;-65
2022/11/06 06:43:48;;;;;;;101.10;19.83;;;;;;;4.15;100.00;100344.13;4254205;28;20784;-71
2022/11/06 06:46:15;;;;;;;91.20;19.13;;;;;;;4.27;100.00;100346.88;4252998;28;20388;-72
2022/11/06 06:48:41;;;;;;;122.47;19.83;;;;;;;4.36;100.00;100339.16;4252174;28;20283;-71
2022/11/06 06:51:08;;;;;;;81.33;18.63;;;;;;;4.40;100.00;100348.56;4259608;28;20233;-68
2022/11/06 06:53:35;;;;;;;231.47;23.83;;;;;;;4.30;100.00;100357.19;4251276;28;20276;-68
2022/11/06 06:56:01;;;;;;;168.43;21.10;;;;;;;4.31;100.00;100350.97;4235975;28;20229;-69
2022/11/06 06:58:28;;;;;;;189.40;22.33;;;;;;;4.30;100.00;100357.19;4243015;28;20448;-67
2022/11/06 07:00:59;;;;;;;187.33;21.40;;;;;;;4.18;100.00;100361.50;4255916;28;22158;-67
2022/11/06 07:03:25;;;;;;;118.20;21.17;;;;;;;4.28;100.00;100359.09;4255178;28;22872;-68
2022/11/06 07:05:52;;;;;;;83.97;18.57;;;;;;;4.38;100.00;100358.34;4243695;28;20306;-64
2022/11/06 07:08:18;;;;;;;136.33;20.73;;;;;;;4.36;100.00;100354.13;4243779;28;21226;-69
2022/11/06 07:10:45;;;;;;;91.70;19.87;;;;;;;4.41;100.00;100367.81;4251525;28;20233;-68
2022/11/06 07:13:11;;;;;;;180.33;23.90;;;;;;;4.46;100.00;100360.44;4253501;28;22252;-68
2022/11/06 07:15:38;;;;;;;113.63;21.77;;;;;;;4.58;100.00;100361.38;4260202;28;24487;-69
2022/11/06 07:18:06;;;;;;;77.20;18.20;;;;;;;4.67;100.00;100365.16;4254777;28;20259;-70
2022/11/06 07:20:32;;;;;;;204.17;22.07;;;;;;;4.44;100.00;100364.97;4244909;28;20248;-72
2022/11/06 07:23:04;;;;;;;103.80;18.83;;;;;;;4.58;100.00;100366.63;4250917;28;21552;-71
2022/11/06 07:25:30;;;;;;;49.67;19.33;;;;;;;4.64;100.00;100369.69;4250227;28;20258;-71
2022/11/06 07:28:01;;;;;;;194.63;22.40;;;;;;;4.61;100.00;100372.53;4238028;28;20668;-70
2022/11/06 07:30:29;;;;;;;277.50;25.00;;;;;;;4.74;100.00;100372.50;4245434;28;20302;-70
2022/11/06 07:32:55;;;;;;;40.80;16.43;;;;;;;4.87;100.00;100377.75;4250579;28;20235;-77
2022/11/06 07:35:22;;;;;;;113.50;19.10;;;;;;;4.91;100.00;100378.38;4249967;28;20302;-70
2022/11/06 07:37:48;;;;;;;101.13;18.43;;;;;;;4.93;100.00;100377.31;4244655;28;21124;-69
2022/11/06 07:40:15;;;;;;;87.53;18.80;;;;;;;5.00;100.00;100375.06;4257636;28;22629;-69
2022/11/06 07:42:41;;;;;;;110.60;16.77;;;;;;;4.96;100.00;100377.06;4254906;28;20877;-69
2022/11/06 07:45:09;;;;;;;44.33;16.33;;;;;;;4.83;100.00;100381.56;4240232;28;21405;-72
2022/11/06 07:47:35;;;;;;;54.03;15.80;;;;;;;4.91;100.00;100378.38;4263079;28;20533;-70
2022/11/06 07:50:02;;;;;;;151.93;19.60;;;;;;;5.01;100.00;100385.53;4258398;28;20230;-72
2022/11/06 07:52:29;;;;;;;110.40;19.20;;;;;;;5.13;100.00;100383.78;4245463;28;25548;-71
2022/11/06 07:54:56;;;;;;;154.03;20.53;;;;;;;4.93;100.00;100382.56;4258702;28;20861;-70
2022/11/06 07:57:22;;;;;;;41.90;16.40;;;;;;;5.00;100.00;100383.81;4259423;28;21743;-71
2022/11/06 07:59:49;;;;;;;112.73;18.07;;;;;;;5.06;100.00;100391.31;4246163;28;21210;-71
2022/11/06 08:02:16;;;;;;;68.97;17.03;;;;;;;5.04;100.00;100385.28;4246866;28;20352;-70
2022/11/06 08:04:43;;;;;;;120.33;17.47;;;;;;;5.13;100.00;100385.56;4253363;28;20240;-71
2022/11/06 08:07:09;;;;;;;186.13;18.90;;;;;;;4.98;100.00;100385.72;4240704;28;20292;-68
2022/11/06 08:09:36;;;;;;;76.77;16.07;;;;;;;4.99;100.00;100386.59;4256767;28;20239;-72
2022/11/06 08:12:02;;;;;;;134.37;18.13;;;;;;;4.74;100.00;100383.06;4259782;28;20243;-69
2022/11/06 08:14:29;;;;;;;53.93;14.77;;;;;;;5.03;100.00;100388.91;4262093;28;20248;-72
2022/11/06 08:16:56;;;;;;;44.07;15.17;;;;;;;5.23;100.00;100391.88;4266990;28;20730;-58
2022/11/06 08:19:22;;;;;;;52.83;16.33;;;;;;;5.34;100.00;100386.66;4256081;28;20227;-72
2022/11/06 08:21:49;;;;;;;132.03;17.57;;;;;;;5.14;100.00;100387.25;4272765;28;20231;-72
2022/11/06 08:24:16;;;;;;;37.97;13.17;;;;;;;5.08;100.00;100392.03;4248477;28;21593;-71
2022/11/06 08:26:47;;;;;;;192.47;18.20;;;;;;;4.90;100.00;100397.78;4263941;28;20251;-73
2022/11/06 08:29:13;;;;;;;126.47;15.97;;;;;;;4.75;100.00;100394.44;4263302;28;20400;-73
2022/11/06 08:31:40;;;;;;;187.43;17.63;;;;;;;4.72;100.00;100397.28;4270471;28;21243;-71
2022/11/06 08:34:07;;;;;;;126.40;16.90;;;;;;;4.84;100.00;100388.50;4269239;28;20236;-71
2022/11/06 08:36:40;;;;;;;67.97;15.53;;;;;;;4.97;100.00;100388.50;4266947;28;20441;-70
2022/11/06 08:39:12;;;;;;;223.87;20.20;;;;;;;4.99;100.00;100397.97;4264517;28;22983;-73
2022/11/06 08:41:39;;;;;;;95.67;17.50;;;;;;;5.14;100.00;100392.53;4259886;28;20235;-71
2022/11/06 08:44:05;;;;;;;84.27;17.27;;;;;;;5.14;100.00;100395.19;4232941;28;20932;-70
2022/11/06 08:46:32;;;;;;;167.20;22.10;;;;;;;5.18;100.00;100392.22;4286071;28;20229;-71
2022/11/06 08:48:59;;;;;;;76.07;17.10;;;;;;;5.16;100.00;100382.72;4284205;28;23487;-70
2022/11/06 08:51:25;;;;;;;64.80;16.77;;;;;;;5.36;100.00;100382.13;4304896;28;20990;-72
2022/11/06 08:53:52;;;;;;;90.70;18.20;;;;;;;5.37;100.00;100389.06;4321715;28;21862;-71
2022/11/06 08:56:19;;;;;;;140.93;18.17;;;;;;;5.32;100.00;100385.09;4266073;28;22176;-71
2022/11/06 08:58:45;;;;;;;51.13;16.17;;;;;;;5.59;100.00;100387.47;4263940;28;21257;-74
2022/11/06 09:01:18;;;;;;;41.80;16.97;;;;;;;5.78;100.00;100377.22;4278944;28;20404;-72
2022/11/06 09:03:45;;;;;;;30.97;15.70;;;;;;;5.91;100.00;100385.91;4289812;28;20322;-71
2022/11/06 09:06:11;;;;;;;53.93;16.90;;;;;;;6.13;100.00;100381.63;4289011;28;20363;-74
2022/11/06 09:08:38;;;;;;;61.80;18.83;;;;;;;6.18;100.00;100376.00;4257052;28;20336;-75
2022/11/06 09:11:06;;;;;;;58.40;17.33;;;;;;;6.29;100.00;100378.66;4277253;28;20230;-72
2022/11/06 09:13:33;;;;;;;43.47;16.70;;;;;;;6.42;100.00;100383.84;4276455;28;20285;-73
2022/11/06 09:16:00;;;;;;;32.97;14.97;;;;;;;6.48;100.00;100391.28;4284651;28;21122;-71
2022/11/06 09:18:26;;;;;;;115.80;17.93;;;;;;;6.29;100.00;100383.94;4300384;28;21940;-70
2022/11/06 09:20:55;;;;;;;40.43;15.93;;;;;;;6.44;100.00;100397.78;4264754;28;21823;-74
2022/11/06 09:23:21;;;;;;;42.00;16.23;;;;;;;6.65;100.00;100392.59;4240207;28;20234;-70
2022/11/06 09:25:48;;;;;;;43.80;15.80;;;;;;;6.65;100.00;100396.13;4282990;28;20234;-71
2022/11/06 09:28:15;;;;;;;34.23;14.27;;;;;;;6.72;100.00;100402.59;4284491;28;20589;-71
2022/11/06 09:30:42;;;;;;;27.70;14.27;;;;;;;6.81;100.00;100402.81;4240292;28;20638;-73
2022/11/06 09:33:08;;;;;;;34.70;14.67;;;;;;;6.88;100.00;100406.66;4255803;28;20851;-71
2022/11/06 09:35:39;;;;;;;29.00;14.87;;;;;;;7.06;100.00;100413.13;4248334;28;25399;-72
2022/11/06 09:38:09;;;;;;;28.40;14.53;;;;;;;7.20;100.00;100412.03;4239344;28;20228;-73
2022/11/06 09:40:39;;;;;;;30.67;13.33;;;;;;;7.12;100.00;100415.28;4260785;28;20284;-72
2022/11/06 09:43:43;;;;;;;29.40;13.70;;;;;;;6.89;100.00;100416.28;4235085;28;20435;-73
2022/11/06 09:46:39;;;;;;;28.80;13.47;;;;;;;6.70;100.00;100415.09;4271138;28;21325;-70
2022/11/06 09:49:25;;;;;;;25.63;13.23;;;;;;;6.62;100.00;100419.28;4270049;28;20236;-71
2022/11/06 09:52:17;;;;;;;61.90;15.57;;;;;;;6.73;100.00;100419.31;4252506;28;21357;-72
2022/11/06 09:54:53;;;;;;;57.37;16.03;;;;;;;6.66;100.00;100416.28;4278160;28;20237;-71
2022/11/06 09:57:50;;;;;;;33.93;15.00;;;;;;;6.78;100.00;100418.94;4249658;28;20587;-70
2022/11/06 10:00:17;;;;;;;29.47;14.97;;;;;;;6.94;100.00;100422.88;4270843;28;20241;-69
2022/11/06 10:02:48;;;;;;;46.50;16.23;;;;;;;7.15;100.00;100424.78;4277614;28;20238;-71
2022/11/06 10:05:29;;;;;;;46.93;16.77;;;;;;;7.31;100.00;100424.41;4311669;28;20238;-72
2022/11/06 10:07:58;;;;;;;30.30;15.57;;;;;;;7.31;100.00;100427.88;4261641;28;20355;-72
2022/11/06 10:11:03;;;;;;;34.33;16.37;;;;;;;7.23;100.00;100421.53;4269529;28;20239;-72
2022/11/06 10:14:10;;;;;;;34.87;15.80;;;;;;;7.24;100.00;100423.22;4292319;28;21571;-71
2022/11/06 10:16:52;;;;;;;30.93;15.37;;;;;;;7.05;100.00;100424.69;4231041;28;21192;-72
2022/11/06 10:19:38;;;;;;;35.50;14.77;;;;;;;7.08;100.00;100427.09;4239465;28;20294;-71
2022/11/06 10:22:23;;;;;;;31.93;15.47;;;;;;;7.01;100.00;100422.41;4276449;28;20232;-74
2022/11/06 10:25:16;;;;;;;32.07;15.27;;;;;;;7.32;100.00;100423.44;4273213;28;21201;-71
2022/11/06 10:27:59;;;;;;;31.67;14.50;;;;;;;7.37;100.00;100429.19;4240709;28;21692;-71
2022/11/06 10:30:34;;;;;;;31.07;15.53;;;;;;;7.38;100.00;100425.59;4271446;28;20420;-74
2022/11/06 10:33:25;;;;;;;29.53;15.20;;;;;;;7.32;100.00;100421.59;4270034;28;20373;-71
2022/11/06 10:36:01;;;;;;;29.33;15.13;;;;;;;7.32;100.00;100420.78;4260689;28;20234;-73
2022/11/06 10:38:32;;;;;;;33.47;15.43;;;;;;;7.28;100.00;100416.69;4265626;28;20589;-72
2022/11/06 10:41:00;;;;;;;32.10;15.27;;;;;;;7.02;100.00;100409.03;4274137;28;20540;-73
2022/11/06 10:43:34;;;;;;;29.57;15.00;;;;;;;7.22;100.00;100402.16;4263045;28;22233;-71
2022/11/06 10:46:09;;;;;;;34.10;16.13;;;;;;;7.50;100.00;100406.03;4256534;28;20330;-71
2022/11/06 10:48:38;;;;;;;34.13;15.60;;;;;;;7.57;100.00;100409.03;4268956;28;21091;-74
2022/11/06 10:51:32;;;;;;;28.97;15.67;;;;;;;7.53;100.00;100408.44;4277136;28;20430;-74
2022/11/06 10:54:05;;;;;;;33.43;15.63;;;;;;;7.45;100.00;100405.59;4259985;28;20239;-76
2022/11/06 10:56:51;;;;;;;30.37;15.93;;;;;;;7.58;100.00;100395.66;4245191;28;20333;-69
2022/11/06 10:59:17;;;;;;;34.37;15.93;;;;;;;7.69;100.00;100391.28;4259851;28;21786;-72
2022/11/06 11:01:44;;;;;;;32.63;15.43;;;;;;;7.86;100.00;100393.34;4265358;28;21076;-71
2022/11/06 11:04:11;;;;;;;27.53;15.17;;;;;;;8.04;100.00;100390.97;4260691;28;20326;-70
2022/11/06 11:06:39;;;;;;;31.80;15.83;;;;;;;8.00;100.00;100394.84;4248251;28;21676;-68
2022/11/06 11:09:25;;;;;;;32.10;16.00;;;;;;;7.88;100.00;100390.59;4255973;28;20695;-66
2022/11/06 11:11:52;;;;;;;39.43;15.50;;;;;;;7.81;100.00;100387.59;4278420;28;20815;-69
2022/11/06 11:14:24;;;;;;;27.60;14.17;;;;;;;7.70;100.00;100385.00;4270793;28;20259;-71
2022/11/06 11:16:51;;;;;;;36.40;15.90;;;;;;;7.54;100.00;100380.16;4246253;28;20247;-74
2022/11/06 11:19:37;;;;;;;31.10;15.43;;;;;;;8.04;100.00;100375.06;4261358;28;20233;-71
2022/11/06 11:22:17;;;;;;;28.07;14.97;;;;;;;8.27;100.00;100370.47;4285317;28;20305;-73
2022/11/06 11:25:04;;;;;;;27.73;14.77;;;;;;;8.40;100.00;100371.09;4312979;28;21627;-72
2022/11/06 11:27:35;;;;;;;32.03;14.23;;;;;;;8.47;100.00;100362.63;4269794;28;20546;-77
2022/11/06 11:30:03;;;;;;;34.80;14.40;;;;;;;8.34;100.00;100361.00;4252805;28;21477;-70
2022/11/06 11:32:30;;;;;;;34.50;15.23;;;;;;;8.01;100.00;100370.03;4237211;28;20915;-69
2022/11/06 11:35:10;;;;;;;35.33;14.87;;;;;;;8.19;100.00;100362.31;4264036;28;22493;-72